Time;durP1;ratioP1;P1;durP2;ratioP2;P2;SDS_P1;SDS_P2;PMS_P1;PMS_P2;Temp;Humidity;BMP_temperature;BMP_pressure;BME280_temperature;BME280_humidity;BME280_pressure;Samples;Min_cycle;Max_cycle;Signal;HPM_P1;HPM_P2
2022/01/30 00:00:46;;;;;;;25.50;15.53;;;;;;;;;;6216027;23;20608;-71
2022/01/30 00:03:15;;;;;;;28.30;17.00;;;;;;;;;;6216030;23;20180;-72
2022/01/30 00:05:43;;;;;;;23.60;16.00;;;;;;;;;;6216090;23;20187;-72
2022/01/30 00:08:10;;;;;;;23.53;16.20;;;;;;;;;;6215858;23;20608;-72
2022/01/30 00:10:39;;;;;;;23.43;15.43;;;;;;;;;;6216168;23;20237;-71
2022/01/30 00:13:11;;;;;;;27.43;15.83;;;;;;;;;;6214392;23;20195;-69
2022/01/30 00:15:49;;;;;;;31.40;15.60;;;;;;;;;;6214811;23;20229;-72
2022/01/30 00:21:08;;;;;;;22.83;16.43;;;;;;;;;;6216372;23;20227;-71
2022/01/30 00:23:41;;;;;;;29.37;16.90;;;;;;;;;;6226156;23;20175;-70
2022/01/30 00:26:09;;;;;;;25.80;15.90;;;;;;;;;;6215785;23;20210;-70
2022/01/30 00:28:37;;;;;;;30.87;17.97;;;;;;;;;;6216370;23;20180;-72
2022/01/30 00:31:05;;;;;;;25.20;16.27;;;;;;;;;;6216157;23;20203;-70
2022/01/30 00:33:32;;;;;;;23.77;15.33;;;;;;;;;;6216283;23;20204;-70
2022/01/30 00:36:00;;;;;;;21.97;15.77;;;;;;;;;;6217964;23;20180;-70
2022/01/30 00:38:27;;;;;;;24.53;16.33;;;;;;;;;;6219584;23;20243;-71
2022/01/30 00:40:54;;;;;;;21.63;15.53;;;;;;;;;;6219351;23;20186;-71
2022/01/30 00:43:22;;;;;;;21.70;14.43;;;;;;;;;;6219123;23;20186;-70
2022/01/30 00:45:50;;;;;;;18.37;13.67;;;;;;;;;;6218032;23;20180;-71
2022/01/30 00:48:17;;;;;;;21.33;15.20;;;;;;;;;;6217833;23;20293;-71
2022/01/30 00:50:45;;;;;;;19.20;13.80;;;;;;;;;;6217933;23;20186;-72
2022/01/30 00:53:12;;;;;;;24.00;15.53;;;;;;;;;;6217410;23;20180;-71
2022/01/30 00:55:40;;;;;;;30.97;16.93;;;;;;;;;;6219173;23;20203;-70
2022/01/30 00:58:08;;;;;;;26.63;17.07;;;;;;;;;;6218126;23;20561;-70
2022/01/30 01:00:36;;;;;;;33.13;18.13;;;;;;;;;;6217943;23;20607;-71
2022/01/30 01:03:05;;;;;;;22.03;15.97;;;;;;;;;;6219406;23;20263;-71
2022/01/30 01:05:34;;;;;;;29.90;17.47;;;;;;;;;;6219195;23;20180;-70
2022/01/30 01:08:10;;;;;;;27.07;17.07;;;;;;;;;;6217680;23;20180;-70
2022/01/30 01:13:45;;;;;;;21.97;16.10;;;;;;;;;;6217482;23;20622;-71
2022/01/30 01:24:07;;;;;;;21.40;15.93;;;;;;;;;;6217830;23;20207;-71
2022/01/30 01:26:36;;;;;;;25.57;16.40;;;;;;;;;;6218448;23;20239;-71
2022/01/30 01:29:07;;;;;;;24.40;17.03;;;;;;;;;;6193056;23;20184;-72
2022/01/30 01:31:34;;;;;;;23.70;16.13;;;;;;;;;;6219285;23;20243;-71
2022/01/30 01:36:43;;;;;;;36.20;20.63;;;;;;;;;;6227582;23;20168;-68
2022/01/30 01:39:11;;;;;;;28.77;18.10;;;;;;;;;;6218957;23;20616;-72
2022/01/30 01:41:40;;;;;;;35.50;18.67;;;;;;;;;;6217877;23;20187;-72
2022/01/30 01:44:28;;;;;;;34.27;20.93;;;;;;;;;;6219125;23;20180;-71
2022/01/30 01:46:56;;;;;;;23.37;17.13;;;;;;;;;;6225528;23;20168;-72
2022/01/30 01:49:28;;;;;;;39.80;20.47;;;;;;;;;;6216129;23;20239;-72
2022/01/30 01:52:40;;;;;;;32.60;18.03;;;;;;;;;;6215554;23;20168;-72
2022/01/30 01:54:54;;;;;;;32.00;17.10;;;;;;;;;;6201036;23;20211;-72
2022/01/30 01:57:23;;;;;;;24.90;14.77;;;;;;;;;;6215678;23;20628;-72
2022/01/30 01:59:56;;;;;;;18.10;11.90;;;;;;;;;;6216027;23;20194;-71
2022/01/30 02:02:37;;;;;;;11.80;8.00;;;;;;;;;;6217476;23;20172;-71
2022/01/30 02:05:06;;;;;;;9.17;6.37;;;;;;;;;;6215763;23;20184;-71
2022/01/30 02:10:24;;;;;;;7.77;4.43;;;;;;;;;;6215937;23;20168;-70
2022/01/30 02:12:54;;;;;;;8.53;4.57;;;;;;;;;;6251285;23;20163;-72
2022/01/30 02:25:56;;;;;;;11.17;3.17;;;;;;;;;;6237968;23;20207;-70
2022/01/30 02:28:25;;;;;;;4.13;2.10;;;;;;;;;;6217268;23;20195;-70
2022/01/30 02:30:59;;;;;;;3.90;1.50;;;;;;;;;;6215694;23;20187;-70
2022/01/30 02:33:27;;;;;;;5.57;1.70;;;;;;;;;;6225406;23;20465;-66
2022/01/30 02:35:54;;;;;;;8.63;2.57;;;;;;;;;;6215268;23;20611;-68
2022/01/30 02:38:23;;;;;;;7.07;2.10;;;;;;;;;;6216774;23;20626;-68
2022/01/30 02:40:54;;;;;;;7.40;2.03;;;;;;;;;;6215598;23;20231;-67
2022/01/30 02:43:27;;;;;;;5.83;1.97;;;;;;;;;;6215701;23;20247;-70
2022/01/30 02:46:06;;;;;;;5.27;1.47;;;;;;;;;;6191769;23;20171;-67
2022/01/30 02:48:50;;;;;;;4.97;1.93;;;;;;;;;;6215163;23;20608;-66
2022/01/30 02:51:20;;;;;;;7.30;1.60;;;;;;;;;;6215308;23;20596;-70
2022/01/30 02:54:02;;;;;;;14.67;4.13;;;;;;;;;;6225504;23;20188;-71
2022/01/30 02:56:35;;;;;;;11.83;3.17;;;;;;;;;;6225233;23;20168;-69
2022/01/30 02:59:03;;;;;;;15.43;4.50;;;;;;;;;;6215339;23;20182;-70
2022/01/30 03:01:30;;;;;;;21.63;4.87;;;;;;;;;;6190432;23;20186;-69
2022/01/30 03:03:58;;;;;;;14.43;4.13;;;;;;;;;;6216996;23;20184;-72
2022/01/30 03:06:27;;;;;;;10.67;2.50;;;;;;;;;;6216812;23;20186;-70
2022/01/30 03:08:55;;;;;;;15.97;3.73;;;;;;;;;;6215259;23;20592;-71
2022/01/30 03:11:23;;;;;;;16.27;3.60;;;;;;;;;;6216811;23;20188;-67
2022/01/30 03:13:50;;;;;;;12.77;3.13;;;;;;;;;;6215352;23;20211;-69
2022/01/30 03:16:21;;;;;;;16.33;2.90;;;;;;;;;;6215243;23;20638;-70
2022/01/30 03:18:49;;;;;;;20.20;5.10;;;;;;;;;;6215392;23;20180;-70
2022/01/30 03:21:18;;;;;;;12.03;2.80;;;;;;;;;;6215415;23;20180;-69
2022/01/30 03:23:45;;;;;;;20.97;3.33;;;;;;;;;;6216531;23;20179;-71
2022/01/30 03:26:14;;;;;;;19.23;4.67;;;;;;;;;;6189950;23;20196;-70
2022/01/30 03:29:03;;;;;;;17.63;3.23;;;;;;;;;;6215120;23;20172;-71
2022/01/30 03:31:34;;;;;;;30.50;7.17;;;;;;;;;;6225054;23;20600;-71
2022/01/30 03:34:02;;;;;;;18.17;4.00;;;;;;;;;;6214971;23;20208;-72
2022/01/30 03:36:41;;;;;;;13.00;3.77;;;;;;;;;;6214797;23;20607;-72
2022/01/30 03:39:10;;;;;;;38.97;9.80;;;;;;;;;;6214933;23;20184;-71
2022/01/30 03:41:37;;;;;;;25.23;5.67;;;;;;;;;;6215044;23;20227;-70
2022/01/30 03:44:07;;;;;;;21.40;5.20;;;;;;;;;;6215007;23;20230;-70
2022/01/30 03:46:35;;;;;;;17.37;5.57;;;;;;;;;;6214915;23;20184;-70
2022/01/30 03:49:23;;;;;;;12.37;3.47;;;;;;;;;;6215042;23;20174;-70
2022/01/30 03:51:51;;;;;;;19.80;6.03;;;;;;;;;;6239137;23;20616;-69
2022/01/30 03:54:23;;;;;;;39.33;9.27;;;;;;;;;;6215015;23;20216;-68
2022/01/30 03:56:51;;;;;;;14.83;3.17;;;;;;;;;;6215032;23;20208;-69
2022/01/30 03:59:23;;;;;;;23.27;5.40;;;;;;;;;;6215054;23;20168;-69
2022/01/30 04:01:51;;;;;;;15.23;4.33;;;;;;;;;;6214951;23;20251;-72
2022/01/30 04:04:19;;;;;;;25.00;7.33;;;;;;;;;;6214685;23;20792;-71
2022/01/30 04:06:47;;;;;;;24.63;5.77;;;;;;;;;;6214780;23;20243;-71
2022/01/30 04:09:29;;;;;;;13.57;3.23;;;;;;;;;;6216063;23;20171;-70
2022/01/30 04:12:17;;;;;;;30.73;7.93;;;;;;;;;;6215690;23;20181;-71
2022/01/30 04:14:51;;;;;;;27.83;6.37;;;;;;;;;;6224822;23;20195;-71
2022/01/30 04:17:35;;;;;;;18.07;6.10;;;;;;;;;;6240110;23;20210;-72
2022/01/30 04:20:08;;;;;;;22.30;4.83;;;;;;;;;;6224645;23;20216;-71
2022/01/30 04:22:49;;;;;;;26.10;6.73;;;;;;;;;;6239648;23;20179;-72
2022/01/30 04:25:33;;;;;;;43.27;12.83;;;;;;;;;;6214450;23;20208;-72
2022/01/30 04:28:07;;;;;;;27.43;8.97;;;;;;;;;;6226049;23;20616;-68
2022/01/30 04:31:01;;;;;;;17.03;5.23;;;;;;;;;;6214667;23;20227;-68
2022/01/30 04:33:40;;;;;;;20.67;5.37;;;;;;;;;;6214414;23;20644;-71
2022/01/30 04:36:29;;;;;;;20.83;6.00;;;;;;;;;;6224842;23;20168;-70
2022/01/30 05:08:10;;;;;;;15.83;2.40;;;;;;;;;;6215629;23;20473;-64
2022/01/30 05:10:53;;;;;;;9.43;2.10;;;;;;;;;;6239843;23;20246;-67
2022/01/30 05:13:37;;;;;;;15.17;3.47;;;;;;;;;;6215851;23;20175;-65
2022/01/30 05:16:27;;;;;;;23.03;5.13;;;;;;;;;;6216021;23;20199;-68
2022/01/30 05:19:12;;;;;;;24.37;4.80;;;;;;;;;;6216008;23;20169;-69
2022/01/30 05:21:56;;;;;;;20.87;4.60;;;;;;;;;;6215775;23;20176;-69
2022/01/30 05:24:38;;;;;;;20.77;4.70;;;;;;;;;;6217575;23;20168;-68
2022/01/30 05:27:12;;;;;;;13.73;2.97;;;;;;;;;;6241611;23;20168;-68
2022/01/30 05:29:42;;;;;;;12.83;3.10;;;;;;;;;;6217818;23;20226;-68
2022/01/30 05:32:10;;;;;;;5.73;1.83;;;;;;;;;;6217760;23;20180;-67
2022/01/30 05:34:47;;;;;;;23.40;4.40;;;;;;;;;;6216210;23;20192;-67
2022/01/30 05:37:37;;;;;;;11.50;3.03;;;;;;;;;;6170860;23;20620;-68
2022/01/30 05:40:19;;;;;;;13.93;3.50;;;;;;;;;;6217581;23;20169;-69
2022/01/30 05:43:12;;;;;;;14.40;4.23;;;;;;;;;;6193590;23;20191;-68
2022/01/30 05:46:13;;;;;;;38.70;10.50;;;;;;;;;;6193246;23;20180;-68
2022/01/30 05:48:54;;;;;;;24.07;5.83;;;;;;;;;;6217308;23;20168;-68
2022/01/30 05:51:35;;;;;;;60.03;16.17;;;;;;;;;;6227047;23;20168;-69
2022/01/30 05:54:11;;;;;;;19.93;6.83;;;;;;;;;;6215753;23;20159;-68
2022/01/30 05:56:40;;;;;;;26.80;7.07;;;;;;;;;;6208634;23;20207;-68
2022/01/30 05:59:16;;;;;;;17.73;4.63;;;;;;;;;;6240465;23;20663;-68
2022/01/30 06:01:58;;;;;;;26.93;7.93;;;;;;;;;;6216234;23;20726;-67
2022/01/30 06:04:25;;;;;;;38.30;9.70;;;;;;;;;;6214822;23;20659;-68
2022/01/30 06:06:54;;;;;;;28.60;6.53;;;;;;;;;;6214526;23;20204;-67
2022/01/30 06:09:21;;;;;;;43.33;9.80;;;;;;;;;;6214923;23;20210;-69
2022/01/30 06:11:53;;;;;;;50.03;11.80;;;;;;;;;;6215762;23;20208;-68
2022/01/30 06:14:23;;;;;;;20.60;5.63;;;;;;;;;;6215139;23;20204;-68
2022/01/30 06:16:59;;;;;;;40.73;10.43;;;;;;;;;;6214580;23;20211;-69
2022/01/30 06:19:47;;;;;;;33.50;7.83;;;;;;;;;;6217420;23;20210;-68
2022/01/30 06:22:27;;;;;;;47.23;10.40;;;;;;;;;;6216045;23;20204;-68
2022/01/30 06:25:09;;;;;;;42.83;10.37;;;;;;;;;;6215351;23;20265;-67
2022/01/30 06:28:05;;;;;;;65.10;15.63;;;;;;;;;;6215340;23;20208;-68
2022/01/30 06:30:48;;;;;;;29.60;7.53;;;;;;;;;;6216276;23;20278;-69
2022/01/30 06:33:29;;;;;;;64.83;20.60;;;;;;;;;;6219148;23;20204;-68
2022/01/30 06:36:11;;;;;;;35.10;9.37;;;;;;;;;;6216247;23;20222;-69
2022/01/30 06:38:44;;;;;;;35.90;9.87;;;;;;;;;;6214671;23;20723;-69
2022/01/30 06:41:25;;;;;;;24.10;7.77;;;;;;;;;;6218518;23;20215;-69
2022/01/30 06:44:08;;;;;;;29.53;7.50;;;;;;;;;;6214669;23;20204;-65
2022/01/30 06:46:49;;;;;;;21.33;4.80;;;;;;;;;;6214609;23;20203;-68
2022/01/30 06:49:32;;;;;;;46.43;12.43;;;;;;;;;;6217842;23;20671;-66
2022/01/30 06:52:22;;;;;;;28.87;10.27;;;;;;;;;;6205965;23;20208;-66
2022/01/30 06:55:02;;;;;;;15.63;3.87;;;;;;;;;;6214918;23;20630;-65
2022/01/30 06:57:45;;;;;;;15.00;4.40;;;;;;;;;;6214878;23;20210;-66
2022/01/30 07:00:26;;;;;;;16.80;4.47;;;;;;;;;;6214867;23;20208;-66
2022/01/30 07:03:06;;;;;;;19.23;5.73;;;;;;;;;;6214921;23;20254;-65
2022/01/30 07:05:52;;;;;;;21.23;6.53;;;;;;;;;;6213131;23;20215;-64
2022/01/30 07:08:30;;;;;;;30.77;8.50;;;;;;;;;;6213257;23;20504;-66
2022/01/30 07:10:58;;;;;;;36.60;8.50;;;;;;;;;;6212768;23;20199;-66
2022/01/30 07:13:25;;;;;;;24.53;5.93;;;;;;;;;;6215965;23;20224;-66
2022/01/30 07:15:52;;;;;;;12.17;3.10;;;;;;;;;;6214178;23;20218;-67
2022/01/30 07:18:20;;;;;;;26.47;6.27;;;;;;;;;;6216186;23;20204;-66
2022/01/30 07:20:48;;;;;;;19.23;4.70;;;;;;;;;;6213933;23;20208;-65
2022/01/30 07:23:16;;;;;;;32.90;7.90;;;;;;;;;;6215199;23;20695;-67
2022/01/30 07:25:44;;;;;;;45.63;11.93;;;;;;;;;;6213383;23;20211;-66
2022/01/30 07:28:11;;;;;;;24.87;4.37;;;;;;;;;;6215577;23;20230;-67
2022/01/30 07:30:39;;;;;;;31.53;8.90;;;;;;;;;;6215504;23;20210;-67
2022/01/30 07:33:06;;;;;;;24.70;5.93;;;;;;;;;;6215861;23;20588;-67
2022/01/30 07:35:36;;;;;;;21.83;7.73;;;;;;;;;;6215822;23;20211;-66
2022/01/30 07:38:04;;;;;;;28.73;7.93;;;;;;;;;;6212741;23;20211;-67
2022/01/30 07:40:33;;;;;;;18.50;5.87;;;;;;;;;;6213363;23;20244;-67
2022/01/30 07:43:00;;;;;;;19.03;6.03;;;;;;;;;;6212227;23;20235;-67
2022/01/30 07:45:28;;;;;;;14.67;3.77;;;;;;;;;;6212493;23;20239;-67
2022/01/30 07:47:55;;;;;;;20.37;5.47;;;;;;;;;;6213564;23;20207;-67
2022/01/30 07:50:22;;;;;;;18.53;4.97;;;;;;;;;;6212949;23;20577;-67
2022/01/30 07:52:49;;;;;;;33.30;9.47;;;;;;;;;;6213923;23;20202;-66
2022/01/30 07:55:17;;;;;;;11.60;3.73;;;;;;;;;;6211785;23;20526;-67
2022/01/30 07:57:44;;;;;;;13.20;3.87;;;;;;;;;;6212412;23;20204;-67
2022/01/30 08:00:13;;;;;;;20.63;5.43;;;;;;;;;;6215358;23;20211;-63
2022/01/30 08:02:40;;;;;;;15.10;4.73;;;;;;;;;;6215550;23;20204;-64
2022/01/30 08:05:08;;;;;;;13.73;3.77;;;;;;;;;;6216085;23;20227;-64
2022/01/30 08:07:35;;;;;;;37.13;7.50;;;;;;;;;;6238134;23;20215;-65
2022/01/30 08:10:03;;;;;;;24.23;5.47;;;;;;;;;;6213305;23;20211;-67
2022/01/30 08:12:30;;;;;;;30.37;9.03;;;;;;;;;;6215454;23;20265;-70
2022/01/30 08:14:57;;;;;;;33.83;8.17;;;;;;;;;;6215501;23;20262;-68
2022/01/30 08:17:24;;;;;;;11.73;5.53;;;;;;;;;;6215541;23;20207;-68
2022/01/30 08:19:51;;;;;;;15.70;6.87;;;;;;;;;;6215810;23;20210;-67
2022/01/30 08:22:19;;;;;;;28.70;6.93;;;;;;;;;;6215396;23;20291;-70
2022/01/30 08:24:46;;;;;;;20.13;4.83;;;;;;;;;;6215117;23;20219;-71
2022/01/30 08:27:13;;;;;;;18.50;5.77;;;;;;;;;;6215512;23;20227;-68
2022/01/30 08:29:40;;;;;;;17.80;5.07;;;;;;;;;;6214586;23;20211;-71
2022/01/30 08:32:11;;;;;;;12.47;2.97;;;;;;;;;;6215768;23;20208;-70
2022/01/30 08:34:39;;;;;;;14.07;4.17;;;;;;;;;;6216428;23;20203;-71
2022/01/30 08:37:06;;;;;;;35.50;9.80;;;;;;;;;;6215468;23;20215;-69
2022/01/30 08:39:34;;;;;;;13.97;4.17;;;;;;;;;;6214897;23;20546;-69
2022/01/30 08:42:01;;;;;;;15.07;4.73;;;;;;;;;;6209196;23;20287;-68
2022/01/30 08:44:28;;;;;;;20.77;5.50;;;;;;;;;;6214873;23;20228;-71
2022/01/30 08:46:55;;;;;;;11.87;4.07;;;;;;;;;;6215151;23;20208;-70
2022/01/30 08:49:23;;;;;;;13.37;4.23;;;;;;;;;;6215715;23;20497;-74
2022/01/30 08:51:50;;;;;;;34.93;9.97;;;;;;;;;;6215469;23;20283;-72
2022/01/30 08:54:18;;;;;;;30.93;9.00;;;;;;;;;;6213288;23;20204;-73
2022/01/30 08:56:45;;;;;;;22.33;6.90;;;;;;;;;;6216882;23;20297;-73
2022/01/30 08:59:12;;;;;;;11.63;3.03;;;;;;;;;;6217341;23;20204;-67
2022/01/30 09:01:40;;;;;;;21.13;5.67;;;;;;;;;;6217307;23;20204;-67
2022/01/30 09:04:08;;;;;;;17.83;4.90;;;;;;;;;;6240720;23;20204;-67
2022/01/30 09:06:38;;;;;;;15.00;5.50;;;;;;;;;;6217553;23;20204;-68
2022/01/30 09:09:06;;;;;;;22.97;5.33;;;;;;;;;;6216717;23;20215;-70
2022/01/30 09:11:34;;;;;;;21.17;4.97;;;;;;;;;;6217261;23;20206;-67
2022/01/30 09:14:01;;;;;;;18.43;4.77;;;;;;;;;;6214733;23;20278;-67
2022/01/30 09:16:29;;;;;;;18.33;5.67;;;;;;;;;;6215311;23;20216;-65
2022/01/30 09:18:57;;;;;;;36.93;11.03;;;;;;;;;;6218588;23;20578;-66
2022/01/30 09:21:25;;;;;;;14.77;4.70;;;;;;;;;;6217625;23;20200;-68
2022/01/30 09:23:52;;;;;;;14.37;4.87;;;;;;;;;;6218203;23;20591;-69
2022/01/30 09:26:20;;;;;;;13.10;4.43;;;;;;;;;;6216132;23;20216;-68
2022/01/30 09:28:47;;;;;;;19.17;5.70;;;;;;;;;;6215571;23;20207;-68
2022/01/30 09:31:15;;;;;;;15.97;5.27;;;;;;;;;;6214914;23;20204;-68
2022/01/30 09:33:42;;;;;;;12.53;3.93;;;;;;;;;;6215986;23;20223;-68
2022/01/30 09:36:10;;;;;;;12.00;3.77;;;;;;;;;;6216860;23;20216;-68
2022/01/30 09:38:37;;;;;;;18.87;7.20;;;;;;;;;;6215776;23;20215;-69
2022/01/30 09:41:05;;;;;;;8.97;3.17;;;;;;;;;;6240807;23;20262;-70
2022/01/30 09:43:32;;;;;;;7.77;2.43;;;;;;;;;;6215542;23;20208;-68
2022/01/30 09:46:00;;;;;;;7.57;2.83;;;;;;;;;;6215792;23;20694;-70
2022/01/30 09:48:27;;;;;;;6.57;2.60;;;;;;;;;;6219437;23;20522;-69
2022/01/30 09:50:55;;;;;;;7.07;3.37;;;;;;;;;;6218230;23;20671;-69
2022/01/30 09:53:23;;;;;;;10.97;3.60;;;;;;;;;;6216756;23;20241;-70
2022/01/30 09:55:50;;;;;;;8.20;3.07;;;;;;;;;;6214602;23;20214;-71
2022/01/30 09:58:19;;;;;;;11.20;3.87;;;;;;;;;;6213545;23;20196;-72
2022/01/30 10:00:53;;;;;;;10.87;3.90;;;;;;;;;;6238233;23;20207;-75
2022/01/30 10:03:23;;;;;;;12.37;4.17;;;;;;;;;;6165391;23;20215;-76
2022/01/30 10:06:16;;;;;;;17.30;4.97;;;;;;;;;;6215575;23;20208;-68
2022/01/30 10:08:46;;;;;;;16.20;5.23;;;;;;;;;;6218318;23;20208;-68
2022/01/30 10:11:41;;;;;;;17.73;4.67;;;;;;;;;;6215756;23;20210;-67
2022/01/30 10:14:14;;;;;;;12.33;4.73;;;;;;;;;;6216219;23;20204;-70
2022/01/30 10:16:45;;;;;;;13.33;4.70;;;;;;;;;;6213631;23;20215;-62
2022/01/30 10:19:21;;;;;;;6.60;2.93;;;;;;;;;;6215925;23;20204;-66
2022/01/30 10:22:09;;;;;;;5.33;2.77;;;;;;;;;;6215577;23;20531;-66
2022/01/30 10:24:40;;;;;;;8.03;2.97;;;;;;;;;;6218443;23;20223;-67
2022/01/30 10:27:20;;;;;;;4.40;1.80;;;;;;;;;;6191024;23;20211;-67
2022/01/30 10:30:04;;;;;;;3.30;1.97;;;;;;;;;;6217094;23;20546;-68
2022/01/30 10:32:31;;;;;;;4.33;2.07;;;;;;;;;;6215153;23;20275;-71
2022/01/30 10:35:03;;;;;;;13.37;3.67;;;;;;;;;;6215222;23;20562;-68
2022/01/30 10:37:39;;;;;;;6.33;2.73;;;;;;;;;;6214376;23;20219;-70
2022/01/30 10:40:18;;;;;;;15.40;3.90;;;;;;;;;;6214887;23;20705;-69
2022/01/30 10:42:46;;;;;;;9.77;4.30;;;;;;;;;;6218691;23;20207;-71
2022/01/30 10:45:36;;;;;;;11.30;4.87;;;;;;;;;;6215300;23;20214;-72
2022/01/30 10:48:20;;;;;;;8.70;2.90;;;;;;;;;;6216048;23;20722;-71
2022/01/30 10:50:48;;;;;;;6.80;2.97;;;;;;;;;;6216741;23;20573;-70
2022/01/30 10:53:17;;;;;;;7.33;2.50;;;;;;;;;;6213724;23;20568;-73
2022/01/30 10:55:45;;;;;;;11.53;3.47;;;;;;;;;;6186379;23;20200;-72
2022/01/30 10:58:16;;;;;;;4.07;1.80;;;;;;;;;;6165986;23;20264;-68
2022/01/30 11:00:45;;;;;;;12.17;5.30;;;;;;;;;;6189303;23;20699;-67
2022/01/30 11:03:39;;;;;;;7.47;2.90;;;;;;;;;;6216609;23;20231;-67
2022/01/30 11:06:11;;;;;;;15.20;5.67;;;;;;;;;;6215399;23;20208;-66
2022/01/30 11:08:41;;;;;;;16.60;5.20;;;;;;;;;;6214233;23;20282;-69
2022/01/30 11:11:28;;;;;;;9.97;3.10;;;;;;;;;;6214869;23;20544;-71
2022/01/30 11:14:16;;;;;;;8.63;3.07;;;;;;;;;;6216320;23;20521;-67
2022/01/30 11:19:27;;;;;;;16.60;5.27;;;;;;;;;;6216348;23;20262;-72
2022/01/30 11:22:01;;;;;;;10.30;3.10;;;;;;;;;;6214939;23;20274;-71
2022/01/30 11:24:29;;;;;;;19.20;5.97;;;;;;;;;;6219067;23;20286;-68
2022/01/30 11:26:57;;;;;;;9.53;3.40;;;;;;;;;;6191368;23;20204;-71
2022/01/30 11:29:24;;;;;;;6.23;2.73;;;;;;;;;;6213289;23;20222;-72
2022/01/30 11:31:51;;;;;;;10.37;3.27;;;;;;;;;;6215304;23;20199;-71
2022/01/30 11:34:21;;;;;;;10.10;3.03;;;;;;;;;;6213672;23;20611;-66
2022/01/30 11:36:51;;;;;;;8.73;3.10;;;;;;;;;;6188877;23;20290;-66
2022/01/30 11:39:19;;;;;;;11.87;4.13;;;;;;;;;;6164885;23;20204;-70
2022/01/30 11:42:07;;;;;;;8.53;3.07;;;;;;;;;;6239029;23;20592;-65
2022/01/30 11:44:34;;;;;;;15.53;4.50;;;;;;;;;;6214373;23;20262;-67
2022/01/30 11:47:02;;;;;;;8.33;3.40;;;;;;;;;;6215598;23;20204;-68
2022/01/30 11:49:41;;;;;;;8.40;3.97;;;;;;;;;;6214067;23;20498;-69
2022/01/30 11:52:10;;;;;;;8.40;4.17;;;;;;;;;;6213820;23;20200;-68
2022/01/30 11:54:42;;;;;;;7.33;3.30;;;;;;;;;;6239264;23;20204;-68
2022/01/30 11:57:27;;;;;;;10.07;3.10;;;;;;;;;;6215534;23;20270;-71
2022/01/30 11:59:56;;;;;;;23.97;7.83;;;;;;;;;;6216793;23;20210;-76
2022/01/30 12:02:37;;;;;;;33.70;9.43;;;;;;;;;;6189765;23;20279;-71
2022/01/30 12:05:09;;;;;;;15.83;6.33;;;;;;;;;;6214460;23;20265;-70
2022/01/30 12:07:45;;;;;;;31.50;7.97;;;;;;;;;;6215073;23;20334;-70
2022/01/30 12:10:16;;;;;;;15.90;5.47;;;;;;;;;;6189337;23;20686;-71
2022/01/30 12:12:54;;;;;;;22.40;6.30;;;;;;;;;;6215880;23;20266;-72
2022/01/30 12:15:39;;;;;;;21.03;6.97;;;;;;;;;;6215219;23;20726;-70
2022/01/30 12:18:11;;;;;;;10.97;5.07;;;;;;;;;;6215573;23;20376;-67
2022/01/30 12:20:59;;;;;;;12.20;4.93;;;;;;;;;;6215187;23;20207;-69
2022/01/30 12:23:29;;;;;;;37.73;11.13;;;;;;;;;;6215711;23;20231;-68
2022/01/30 12:26:04;;;;;;;16.77;6.50;;;;;;;;;;6215100;23;20255;-67
2022/01/30 12:28:43;;;;;;;14.00;5.53;;;;;;;;;;6214446;23;20196;-67
2022/01/30 12:31:29;;;;;;;10.27;4.30;;;;;;;;;;6215474;23;20212;-67
2022/01/30 12:34:07;;;;;;;9.07;3.97;;;;;;;;;;6216797;23;20207;-67
2022/01/30 12:36:37;;;;;;;17.77;5.60;;;;;;;;;;6214350;23;20243;-66
2022/01/30 12:39:07;;;;;;;29.80;8.93;;;;;;;;;;6215386;23;20554;-69
2022/01/30 12:41:36;;;;;;;29.23;8.70;;;;;;;;;;6214686;23;20208;-69
2022/01/30 12:44:12;;;;;;;13.73;5.27;;;;;;;;;;6215500;23;20208;-69
2022/01/30 12:46:46;;;;;;;11.47;5.87;;;;;;;;;;6215338;23;20257;-70
2022/01/30 12:49:19;;;;;;;13.20;5.67;;;;;;;;;;6216091;23;20178;-69
2022/01/30 12:51:52;;;;;;;13.73;4.83;;;;;;;;;;6216101;23;20168;-70
2022/01/30 12:54:25;;;;;;;11.50;3.80;;;;;;;;;;6214908;23;20169;-69
2022/01/30 12:56:54;;;;;;;6.03;3.20;;;;;;;;;;6216087;23;20196;-69
2022/01/30 12:59:23;;;;;;;9.40;3.00;;;;;;;;;;6216004;23;20180;-69
2022/01/30 13:01:51;;;;;;;8.30;3.43;;;;;;;;;;6216045;23;20557;-69
2022/01/30 13:04:21;;;;;;;13.37;5.67;;;;;;;;;;6215860;23;20183;-69
2022/01/30 13:06:50;;;;;;;8.97;2.60;;;;;;;;;;6215918;23;20207;-69
2022/01/30 13:09:23;;;;;;;6.30;2.70;;;;;;;;;;6214164;23;20604;-68
2022/01/30 13:11:50;;;;;;;5.40;2.60;;;;;;;;;;6215926;23;20172;-68
2022/01/30 13:14:18;;;;;;;7.60;3.30;;;;;;;;;;6215593;23;20291;-69
2022/01/30 13:16:48;;;;;;;8.37;2.73;;;;;;;;;;6215738;23;20199;-68
2022/01/30 13:19:30;;;;;;;9.40;2.93;;;;;;;;;;6216046;23;20239;-68
2022/01/30 13:21:57;;;;;;;9.03;3.13;;;;;;;;;;6225925;23;20168;-68
2022/01/30 13:24:26;;;;;;;14.13;5.27;;;;;;;;;;6216131;23;20255;-68
2022/01/30 13:27:05;;;;;;;11.23;4.33;;;;;;;;;;6215985;23;20207;-70
2022/01/30 13:29:35;;;;;;;7.47;3.60;;;;;;;;;;6224383;23;20631;-69
2022/01/30 13:32:10;;;;;;;12.43;3.80;;;;;;;;;;6215887;23;20184;-69
2022/01/30 13:34:39;;;;;;;8.13;3.23;;;;;;;;;;6215888;23;20175;-70
2022/01/30 13:37:08;;;;;;;8.23;3.33;;;;;;;;;;6215796;23;20208;-69
2022/01/30 13:39:45;;;;;;;11.60;4.47;;;;;;;;;;6215925;23;20180;-69
2022/01/30 13:47:53;;;;;;;5.53;2.60;;;;;;;;;;6217666;23;20542;-67
2022/01/30 13:50:24;;;;;;;4.67;2.60;;;;;;;;;;6217737;23;20168;-69
2022/01/30 13:53:11;;;;;;;8.73;2.97;;;;;;;;;;6217561;23;20169;-70
2022/01/30 13:56:06;;;;;;;4.70;2.13;;;;;;;;;;6217551;23;20175;-69
2022/01/30 13:58:37;;;;;;;6.53;2.53;;;;;;;;;;6217277;23;20211;-68
2022/01/30 14:01:08;;;;;;;5.40;2.97;;;;;;;;;;6217649;23;20184;-69
2022/01/30 14:03:38;;;;;;;8.60;3.20;;;;;;;;;;6217430;23;20169;-68
2022/01/30 14:06:18;;;;;;;3.47;2.30;;;;;;;;;;6217499;23;20210;-70
2022/01/30 14:09:09;;;;;;;9.23;4.97;;;;;;;;;;6217421;23;20168;-69
2022/01/30 14:11:38;;;;;;;6.30;3.00;;;;;;;;;;6227294;23;20169;-68
2022/01/30 14:14:17;;;;;;;4.10;2.10;;;;;;;;;;6217395;23;20255;-69
2022/01/30 14:16:49;;;;;;;2.90;1.80;;;;;;;;;;6217208;23;20200;-69
2022/01/30 14:19:25;;;;;;;7.47;2.13;;;;;;;;;;6217380;23;20169;-65
2022/01/30 14:21:57;;;;;;;2.77;1.70;;;;;;;;;;6227191;23;20251;-68
2022/01/30 14:24:27;;;;;;;2.43;1.37;;;;;;;;;;6217311;23;20169;-68
2022/01/30 14:27:09;;;;;;;3.30;2.17;;;;;;;;;;6216933;23;20183;-69
2022/01/30 14:29:38;;;;;;;3.27;2.03;;;;;;;;;;6217321;23;20165;-70
2022/01/30 14:32:20;;;;;;;2.70;1.57;;;;;;;;;;6217278;23;20219;-71
2022/01/30 14:34:50;;;;;;;3.90;1.43;;;;;;;;;;6226997;23;20183;-71
2022/01/30 14:37:18;;;;;;;3.60;1.40;;;;;;;;;;6217090;23;20204;-71
2022/01/30 14:39:53;;;;;;;4.50;1.80;;;;;;;;;;6217054;23;20180;-71
2022/01/30 14:42:21;;;;;;;2.37;1.50;;;;;;;;;;6226908;23;20168;-70
2022/01/30 14:44:48;;;;;;;4.70;2.10;;;;;;;;;;6216687;23;20628;-71
2022/01/30 14:47:16;;;;;;;3.90;2.70;;;;;;;;;;6216906;23;20186;-71
2022/01/30 14:49:44;;;;;;;9.63;3.73;;;;;;;;;;6217090;23;20210;-68
2022/01/30 14:52:13;;;;;;;7.03;4.07;;;;;;;;;;6216929;23;20200;-71
2022/01/30 14:54:41;;;;;;;4.47;2.60;;;;;;;;;;6240354;23;20188;-71
2022/01/30 14:57:09;;;;;;;8.40;3.73;;;;;;;;;;6216873;23;20208;-68
2022/01/30 14:59:37;;;;;;;7.53;2.93;;;;;;;;;;6215425;23;20187;-65
2022/01/30 15:02:04;;;;;;;4.57;2.87;;;;;;;;;;6215793;23;20208;-67
2022/01/30 15:04:33;;;;;;;6.53;3.53;;;;;;;;;;6210642;23;20204;-71
2022/01/30 15:07:02;;;;;;;9.00;4.17;;;;;;;;;;6187465;23;20687;-68
2022/01/30 15:09:30;;;;;;;7.10;3.33;;;;;;;;;;6215873;23;20204;-67
2022/01/30 15:11:58;;;;;;;6.17;3.40;;;;;;;;;;6216344;23;20219;-70
2022/01/30 15:14:34;;;;;;;11.67;5.67;;;;;;;;;;6215568;23;20243;-70
2022/01/30 15:17:05;;;;;;;4.50;2.53;;;;;;;;;;6215958;23;20674;-70
2022/01/30 15:19:52;;;;;;;5.87;2.73;;;;;;;;;;6194135;23;20268;-71
2022/01/30 15:22:22;;;;;;;7.20;3.67;;;;;;;;;;6215397;23;20671;-71
2022/01/30 15:24:53;;;;;;;9.80;4.03;;;;;;;;;;6165190;23;20274;-71
2022/01/30 15:27:21;;;;;;;7.17;3.70;;;;;;;;;;6189897;23;20211;-69
2022/01/30 15:29:50;;;;;;;8.43;3.63;;;;;;;;;;6215545;23;20211;-72
2022/01/30 15:32:18;;;;;;;5.40;2.83;;;;;;;;;;6214863;23;20663;-72
2022/01/30 15:34:45;;;;;;;9.10;3.30;;;;;;;;;;6214232;23;20528;-69
2022/01/30 15:37:13;;;;;;;5.63;2.70;;;;;;;;;;6214770;23;20227;-72
2022/01/30 15:39:40;;;;;;;4.90;2.70;;;;;;;;;;6213431;23;20212;-71
2022/01/30 15:42:10;;;;;;;4.47;2.83;;;;;;;;;;6164689;23;20204;-70
2022/01/30 15:50:00;;;;;;;3.10;2.20;;;;;;;;;;6237064;23;20282;-71
2022/01/30 15:52:28;;;;;;;2.47;1.63;;;;;;;;;;6188565;23;20203;-71
2022/01/30 15:54:56;;;;;;;5.57;2.20;;;;;;;;;;6213883;23;20211;-71
2022/01/30 15:57:24;;;;;;;5.30;1.60;;;;;;;;;;6214080;23;20215;-72
2022/01/30 15:59:56;;;;;;;5.00;1.80;;;;;;;;;;6237683;23;20283;-71
2022/01/30 16:02:23;;;;;;;5.10;1.90;;;;;;;;;;6188463;23;20262;-71
2022/01/30 16:04:55;;;;;;;2.43;1.77;;;;;;;;;;6213047;23;20283;-67
2022/01/30 16:07:24;;;;;;;4.53;1.70;;;;;;;;;;6214750;23;20223;-64
2022/01/30 16:09:54;;;;;;;3.23;1.53;;;;;;;;;;6215396;23;20663;-63
2022/01/30 16:17:44;;;;;;;2.83;1.23;;;;;;;;;;6214908;23;20215;-68
2022/01/30 16:20:11;;;;;;;2.47;1.20;;;;;;;;;;6214035;23;20675;-68